Time;durP1;ratioP1;P1;durP2;ratioP2;P2;SDS_P1;SDS_P2;PMS_P1;PMS_P2;Temp;Humidity;BMP_temperature;BMP_pressure;BME280_temperature;BME280_humidity;BME280_pressure;Samples;Min_cycle;Max_cycle;Signal;HPM_P1;HPM_P2
2021/07/01 00:01:36;;;;;;;5.28;1.70;;;;;;;;;;5133875;28;20132;-69
2021/07/01 00:04:02;;;;;;;6.47;2.10;;;;;;;;;;5133976;28;20030;-69
2021/07/01 00:06:28;;;;;;;10.30;2.30;;;;;;;;;;5133570;28;20371;-68
2021/07/01 00:08:54;;;;;;;8.63;2.35;;;;;;;;;;5115438;28;20091;-70
2021/07/01 00:11:20;;;;;;;12.57;2.15;;;;;;;;;;5115418;28;20031;-70
2021/07/01 00:13:47;;;;;;;12.10;2.42;;;;;;;;;;5134035;28;20159;-71
2021/07/01 00:16:13;;;;;;;10.75;2.28;;;;;;;;;;5134081;27;20102;-69
2021/07/01 00:18:39;;;;;;;7.93;1.80;;;;;;;;;;5119351;27;20115;-69
2021/07/01 00:21:05;;;;;;;8.45;2.10;;;;;;;;;;5138173;27;20555;-70
2021/07/01 00:23:32;;;;;;;10.57;2.30;;;;;;;;;;5137941;27;20031;-68
2021/07/01 00:25:58;;;;;;;8.60;2.13;;;;;;;;;;5138088;27;20134;-70
2021/07/01 00:28:24;;;;;;;6.47;2.08;;;;;;;;;;5118955;27;20103;-69
2021/07/01 00:30:50;;;;;;;7.38;2.42;;;;;;;;;;5119303;27;20471;-70
2021/07/01 00:33:16;;;;;;;8.23;1.85;;;;;;;;;;5137713;27;20019;-71
2021/07/01 00:35:43;;;;;;;5.20;1.42;;;;;;;;;;5118916;27;20073;-70
2021/07/01 00:38:09;;;;;;;5.22;2.25;;;;;;;;;;5137606;27;20043;-70
2021/07/01 00:40:35;;;;;;;3.70;1.60;;;;;;;;;;5137259;27;20039;-70
2021/07/01 00:43:02;;;;;;;4.22;1.70;;;;;;;;;;5119135;27;20115;-70
2021/07/01 00:45:28;;;;;;;7.63;1.58;;;;;;;;;;5137408;27;20102;-68
2021/07/01 00:47:54;;;;;;;5.05;1.85;;;;;;;;;;5118961;27;20023;-71
2021/07/01 00:50:20;;;;;;;9.52;2.28;;;;;;;;;;5137315;27;20031;-71
2021/07/01 00:52:46;;;;;;;3.35;1.38;;;;;;;;;;5137325;27;20090;-69
2021/07/01 00:55:13;;;;;;;7.97;1.80;;;;;;;;;;5137209;27;20160;-70
2021/07/01 00:57:39;;;;;;;3.90;1.60;;;;;;;;;;5137211;27;20122;-70
2021/07/01 01:00:17;;;;;;;5.13;1.88;;;;;;;;;;5137125;27;20019;-69
2021/07/01 01:02:44;;;;;;;6.95;1.58;;;;;;;;;;5137155;27;20563;-70
2021/07/01 01:05:10;;;;;;;3.58;1.70;;;;;;;;;;5118624;27;20023;-70
2021/07/01 01:07:36;;;;;;;9.10;2.05;;;;;;;;;;5137002;27;20019;-70
2021/07/01 01:10:02;;;;;;;3.83;1.95;;;;;;;;;;5136956;27;20110;-69
2021/07/01 01:12:28;;;;;;;3.15;1.60;;;;;;;;;;5136885;27;20102;-69
2021/07/01 01:14:55;;;;;;;9.88;4.00;;;;;;;;;;5136553;27;20115;-68
2021/07/01 01:17:21;;;;;;;4.95;2.40;;;;;;;;;;5136864;27;20593;-69
2021/07/01 01:19:47;;;;;;;4.43;1.73;;;;;;;;;;5136692;27;20024;-67
2021/07/01 01:22:13;;;;;;;7.72;1.77;;;;;;;;;;5136703;27;20115;-67
2021/07/01 01:24:39;;;;;;;4.40;1.42;;;;;;;;;;5136747;27;20109;-68
2021/07/01 01:27:06;;;;;;;6.22;1.90;;;;;;;;;;5136699;27;20015;-68
2021/07/01 01:29:32;;;;;;;3.63;1.63;;;;;;;;;;5117254;27;20142;-67
2021/07/01 01:31:58;;;;;;;2.50;2.08;;;;;;;;;;5136849;27;20155;-68
2021/07/01 01:34:24;;;;;;;7.40;2.05;;;;;;;;;;5136546;27;20102;-67
2021/07/01 01:36:50;;;;;;;6.57;1.55;;;;;;;;;;5117830;27;20085;-68
2021/07/01 01:39:19;;;;;;;12.10;2.78;;;;;;;;;;5136306;27;20109;-68
2021/07/01 01:41:46;;;;;;;10.20;1.98;;;;;;;;;;5136431;27;20035;-68
2021/07/01 01:44:12;;;;;;;13.55;1.70;;;;;;;;;;5136679;27;20066;-69
2021/07/01 01:46:38;;;;;;;9.57;1.95;;;;;;;;;;5136008;27;20061;-69
2021/07/01 01:49:05;;;;;;;8.82;2.05;;;;;;;;;;5135939;27;20050;-68
2021/07/01 01:51:32;;;;;;;6.45;1.70;;;;;;;;;;5118075;27;20046;-69
2021/07/01 01:53:58;;;;;;;5.25;1.25;;;;;;;;;;5138222;27;20530;-68
2021/07/01 01:56:24;;;;;;;5.30;1.55;;;;;;;;;;5138384;27;20031;-70
2021/07/01 01:58:51;;;;;;;8.65;1.50;;;;;;;;;;5137961;27;20023;-69
2021/07/01 02:01:17;;;;;;;5.05;1.50;;;;;;;;;;5138054;27;20421;-69
2021/07/01 02:03:43;;;;;;;2.88;1.45;;;;;;;;;;5120271;27;20375;-68
2021/07/01 02:06:09;;;;;;;5.30;1.27;;;;;;;;;;5119756;27;20046;-69
2021/07/01 02:08:38;;;;;;;3.80;1.58;;;;;;;;;;5119629;27;20121;-69
2021/07/01 02:11:04;;;;;;;5.18;1.27;;;;;;;;;;5135804;27;20015;-71
2021/07/01 02:13:30;;;;;;;3.58;1.60;;;;;;;;;;5135841;27;20019;-67
2021/07/01 02:15:57;;;;;;;3.45;1.00;;;;;;;;;;5135679;27;20094;-68
2021/07/01 02:18:23;;;;;;;3.65;1.17;;;;;;;;;;5135577;27;20479;-70
2021/07/01 02:20:49;;;;;;;2.90;1.25;;;;;;;;;;5135598;27;20033;-67
2021/07/01 02:23:15;;;;;;;4.13;1.00;;;;;;;;;;5135566;27;20057;-68
2021/07/01 02:25:42;;;;;;;2.55;1.40;;;;;;;;;;5135530;27;20125;-68
2021/07/01 02:28:08;;;;;;;1.02;1.02;;;;;;;;;;5116986;27;20471;-68
2021/07/01 02:30:34;;;;;;;4.72;1.13;;;;;;;;;;5135082;27;20023;-68
2021/07/01 02:33:00;;;;;;;6.65;1.20;;;;;;;;;;5116858;27;20387;-67
2021/07/01 02:35:27;;;;;;;9.48;1.30;;;;;;;;;;5135562;27;20058;-67
2021/07/01 02:37:53;;;;;;;4.88;1.33;;;;;;;;;;5116561;27;20058;-67
2021/07/01 02:40:19;;;;;;;8.27;1.83;;;;;;;;;;5116576;27;20118;-68
2021/07/01 02:42:45;;;;;;;3.03;1.67;;;;;;;;;;5135180;27;20028;-67
2021/07/01 02:45:12;;;;;;;2.88;1.20;;;;;;;;;;5135143;27;20023;-69
2021/07/01 02:47:38;;;;;;;7.20;1.58;;;;;;;;;;5116550;27;20080;-67
2021/07/01 02:50:06;;;;;;;2.38;1.08;;;;;;;;;;5135008;27;20023;-67
2021/07/01 02:52:32;;;;;;;6.90;1.63;;;;;;;;;;5134955;27;20011;-68
2021/07/01 02:54:58;;;;;;;9.35;2.00;;;;;;;;;;5116537;27;20506;-68
2021/07/01 02:57:25;;;;;;;6.65;1.60;;;;;;;;;;5134920;27;20025;-67
2021/07/01 02:59:51;;;;;;;10.93;1.67;;;;;;;;;;5134454;27;20079;-69
2021/07/01 03:02:17;;;;;;;5.35;1.80;;;;;;;;;;5134803;27;20023;-68
2021/07/01 03:04:43;;;;;;;7.75;1.77;;;;;;;;;;5135038;27;20115;-68
2021/07/01 03:07:09;;;;;;;5.40;1.98;;;;;;;;;;5116178;27;20475;-66
2021/07/01 03:09:36;;;;;;;10.50;2.47;;;;;;;;;;5116127;27;20054;-68
2021/07/01 03:12:02;;;;;;;11.57;1.70;;;;;;;;;;5134575;27;20064;-67
2021/07/01 03:14:28;;;;;;;4.05;1.40;;;;;;;;;;5115860;27;20016;-66
2021/07/01 03:16:55;;;;;;;7.47;2.03;;;;;;;;;;5134543;27;20096;-67
2021/07/01 03:19:21;;;;;;;10.07;2.17;;;;;;;;;;5134472;27;20019;-67
2021/07/01 03:21:47;;;;;;;5.53;1.20;;;;;;;;;;5115958;27;20592;-67
2021/07/01 03:24:14;;;;;;;9.65;1.40;;;;;;;;;;5134505;27;20054;-69
2021/07/01 03:26:40;;;;;;;11.43;2.33;;;;;;;;;;5134380;27;20033;-69
2021/07/01 03:29:10;;;;;;;5.97;1.65;;;;;;;;;;5134395;27;20118;-66
2021/07/01 03:31:37;;;;;;;6.17;1.83;;;;;;;;;;5134300;27;20065;-66
2021/07/01 03:34:03;;;;;;;3.22;1.60;;;;;;;;;;5115861;27;20026;-66
2021/07/01 03:36:29;;;;;;;7.95;1.80;;;;;;;;;;5115556;27;20134;-67
2021/07/01 03:38:56;;;;;;;9.68;2.20;;;;;;;;;;5134090;27;20031;-68
2021/07/01 03:41:23;;;;;;;5.05;1.63;;;;;;;;;;5115781;28;20031;-67
2021/07/01 03:43:52;;;;;;;8.95;1.65;;;;;;;;;;5115778;27;20353;-68
2021/07/01 03:46:18;;;;;;;10.68;1.90;;;;;;;;;;5134166;27;20042;-66
2021/07/01 03:48:44;;;;;;;9.73;1.50;;;;;;;;;;5134371;27;20059;-70
2021/07/01 03:51:10;;;;;;;6.53;2.03;;;;;;;;;;5133593;27;20031;-67
2021/07/01 03:53:37;;;;;;;5.60;1.73;;;;;;;;;;5115594;28;20027;-67
2021/07/01 03:56:03;;;;;;;5.07;1.58;;;;;;;;;;5134084;28;20066;-67
2021/07/01 03:58:29;;;;;;;2.80;1.65;;;;;;;;;;5115492;28;20023;-67
2021/07/01 04:00:55;;;;;;;5.95;1.50;;;;;;;;;;5134220;28;20114;-68
2021/07/01 04:03:22;;;;;;;2.70;1.35;;;;;;;;;;5115519;28;20030;-68
2021/07/01 04:05:48;;;;;;;8.15;1.67;;;;;;;;;;5134001;28;20023;-67
2021/07/01 04:08:14;;;;;;;9.15;1.60;;;;;;;;;;5133883;28;20467;-66
2021/07/01 04:10:40;;;;;;;5.15;1.60;;;;;;;;;;5133850;28;20375;-68
2021/07/01 04:13:07;;;;;;;2.45;1.27;;;;;;;;;;5115408;28;20105;-69
2021/07/01 04:15:33;;;;;;;6.57;1.90;;;;;;;;;;5134124;28;20106;-70
2021/07/01 04:17:59;;;;;;;3.15;2.03;;;;;;;;;;5133803;28;20023;-71
2021/07/01 04:20:25;;;;;;;4.00;1.50;;;;;;;;;;5115232;28;20041;-70
2021/07/01 04:22:52;;;;;;;3.67;1.35;;;;;;;;;;5134025;28;20554;-70
2021/07/01 04:25:18;;;;;;;5.47;1.85;;;;;;;;;;5133770;28;20057;-69
2021/07/01 04:27:44;;;;;;;3.47;1.23;;;;;;;;;;5115308;28;20535;-67
2021/07/01 04:30:10;;;;;;;7.57;1.67;;;;;;;;;;5133704;28;20031;-69
2021/07/01 04:32:37;;;;;;;3.40;1.60;;;;;;;;;;5115213;28;20015;-68
2021/07/01 04:35:03;;;;;;;4.47;1.60;;;;;;;;;;5115251;28;20023;-70
2021/07/01 04:37:30;;;;;;;4.90;1.33;;;;;;;;;;5114729;28;20043;-67
2021/07/01 04:39:57;;;;;;;3.13;1.48;;;;;;;;;;5133631;28;20673;-66
2021/07/01 04:42:23;;;;;;;9.77;2.13;;;;;;;;;;5115403;28;20095;-66
2021/07/01 04:44:49;;;;;;;9.55;1.98;;;;;;;;;;5133350;28;20019;-68
2021/07/01 04:47:15;;;;;;;5.90;1.95;;;;;;;;;;5133264;28;20055;-67
2021/07/01 04:49:42;;;;;;;3.45;1.90;;;;;;;;;;5133490;28;20019;-68
2021/07/01 04:52:08;;;;;;;9.27;2.10;;;;;;;;;;5133497;28;20024;-68
2021/07/01 04:54:34;;;;;;;4.15;1.77;;;;;;;;;;5115039;28;20026;-69
2021/07/01 04:57:00;;;;;;;6.40;2.10;;;;;;;;;;5133058;28;20414;-66
2021/07/01 04:59:27;;;;;;;4.43;1.98;;;;;;;;;;5133308;28;20023;-67
2021/07/01 05:01:55;;;;;;;6.95;1.90;;;;;;;;;;5133408;28;20080;-68
2021/07/01 05:04:21;;;;;;;11.18;2.92;;;;;;;;;;5135153;27;20019;-68
2021/07/01 05:06:47;;;;;;;8.75;2.65;;;;;;;;;;5137030;27;20049;-68
2021/07/01 05:09:13;;;;;;;9.57;4.30;;;;;;;;;;5136997;27;20505;-70
2021/07/01 05:11:40;;;;;;;7.55;3.38;;;;;;;;;;5118551;27;20440;-69
2021/07/01 05:14:06;;;;;;;2.30;1.90;;;;;;;;;;5136912;27;20019;-67
2021/07/01 05:16:33;;;;;;;8.43;2.33;;;;;;;;;;5136944;27;20034;-68
2021/07/01 05:19:00;;;;;;;5.85;2.30;;;;;;;;;;5136744;27;20023;-68
2021/07/01 05:21:27;;;;;;;9.80;2.50;;;;;;;;;;5136708;27;20028;-70
2021/07/01 05:23:53;;;;;;;10.25;2.90;;;;;;;;;;5117925;27;20114;-68
2021/07/01 05:26:20;;;;;;;8.45;2.33;;;;;;;;;;5136708;27;20019;-69
2021/07/01 05:28:46;;;;;;;8.85;2.15;;;;;;;;;;5118109;27;20027;-69
2021/07/01 05:31:12;;;;;;;5.95;2.90;;;;;;;;;;5136208;27;20506;-70
2021/07/01 05:33:39;;;;;;;6.32;1.92;;;;;;;;;;5136448;27;20023;-68
2021/07/01 05:36:05;;;;;;;12.73;2.17;;;;;;;;;;5136453;27;20050;-68
2021/07/01 05:38:32;;;;;;;6.43;2.58;;;;;;;;;;5136296;27;20102;-68
2021/07/01 05:40:58;;;;;;;9.55;2.38;;;;;;;;;;5117829;27;20112;-67
2021/07/01 05:43:25;;;;;;;7.43;2.08;;;;;;;;;;5135981;27;20111;-65
2021/07/01 05:45:51;;;;;;;4.85;2.30;;;;;;;;;;5136288;27;20022;-64
2021/07/01 05:48:18;;;;;;;6.60;2.33;;;;;;;;;;5136162;27;20023;-64
2021/07/01 05:51:05;;;;;;;7.15;2.03;;;;;;;;;;5117657;27;20023;-64
2021/07/01 05:53:42;;;;;;;8.23;1.98;;;;;;;;;;5117601;27;20023;-66
2021/07/01 05:56:08;;;;;;;10.23;2.72;;;;;;;;;;5135955;27;20098;-65
2021/07/01 05:58:34;;;;;;;7.30;1.92;;;;;;;;;;5135663;27;20098;-65
2021/07/01 06:01:00;;;;;;;7.45;2.00;;;;;;;;;;5136003;27;20030;-64
2021/07/01 06:03:27;;;;;;;9.80;2.17;;;;;;;;;;5135948;27;20021;-65
2021/07/01 06:06:00;;;;;;;6.82;2.15;;;;;;;;;;5136219;27;20067;-67
2021/07/01 06:08:29;;;;;;;6.85;1.63;;;;;;;;;;5135319;27;20027;-65
2021/07/01 06:10:58;;;;;;;6.63;2.40;;;;;;;;;;5135634;27;20016;-65
2021/07/01 06:13:25;;;;;;;7.85;2.60;;;;;;;;;;5135531;27;20447;-64
2021/07/01 06:15:52;;;;;;;7.18;2.33;;;;;;;;;;5131906;27;20015;-64
2021/07/01 06:18:22;;;;;;;5.55;2.10;;;;;;;;;;5135221;27;20106;-65
2021/07/01 06:20:49;;;;;;;6.20;1.60;;;;;;;;;;5135409;27;20045;-65
2021/07/01 06:23:16;;;;;;;4.50;1.70;;;;;;;;;;5134910;27;20502;-63
2021/07/01 06:25:43;;;;;;;4.22;1.73;;;;;;;;;;5135248;27;20042;-65
2021/07/01 06:28:12;;;;;;;7.82;1.80;;;;;;;;;;5134618;27;20439;-65
2021/07/01 06:30:39;;;;;;;10.23;2.40;;;;;;;;;;5135223;27;20079;-66
2021/07/01 06:33:06;;;;;;;6.85;2.00;;;;;;;;;;5134845;27;20520;-64
2021/07/01 06:35:32;;;;;;;5.05;1.90;;;;;;;;;;5135100;27;20026;-63
2021/07/01 06:38:00;;;;;;;6.50;2.15;;;;;;;;;;5116247;27;20027;-64
2021/07/01 06:40:30;;;;;;;4.63;2.58;;;;;;;;;;5116464;27;20139;-64
2021/07/01 06:42:57;;;;;;;6.82;1.90;;;;;;;;;;5135362;27;20126;-64
2021/07/01 06:45:24;;;;;;;10.02;1.98;;;;;;;;;;5134847;27;20102;-65
2021/07/01 06:47:51;;;;;;;4.00;1.83;;;;;;;;;;5134346;27;20102;-65
2021/07/01 06:50:20;;;;;;;4.57;1.50;;;;;;;;;;5116234;27;20027;-64
2021/07/01 06:52:47;;;;;;;4.65;1.48;;;;;;;;;;5116482;27;20015;-67
2021/07/01 06:55:15;;;;;;;6.97;1.80;;;;;;;;;;5134975;27;20023;-64
2021/07/01 06:57:41;;;;;;;5.57;1.92;;;;;;;;;;5134615;27;20088;-67
2021/07/01 07:00:09;;;;;;;5.80;2.00;;;;;;;;;;5134774;27;20046;-68
2021/07/01 07:02:36;;;;;;;4.85;1.77;;;;;;;;;;5116654;27;20038;-67
2021/07/01 07:05:04;;;;;;;5.43;1.73;;;;;;;;;;5116504;27;20160;-65
2021/07/01 07:07:30;;;;;;;5.60;1.92;;;;;;;;;;5134765;27;20025;-66
2021/07/01 07:10:00;;;;;;;7.07;2.38;;;;;;;;;;5116229;27;20088;-66
2021/07/01 07:12:27;;;;;;;7.63;2.50;;;;;;;;;;5134926;27;20023;-67
2021/07/01 07:14:53;;;;;;;7.95;4.75;;;;;;;;;;5134531;27;20459;-65
2021/07/01 07:17:19;;;;;;;3.90;2.63;;;;;;;;;;5134618;27;20035;-68
2021/07/01 07:19:47;;;;;;;3.17;2.08;;;;;;;;;;5116019;27;20016;-65
2021/07/01 07:22:14;;;;;;;4.90;1.52;;;;;;;;;;5116098;27;20118;-66
2021/07/01 07:24:41;;;;;;;2.55;1.67;;;;;;;;;;5133885;27;20047;-68
2021/07/01 07:27:08;;;;;;;7.25;1.90;;;;;;;;;;5133631;27;20098;-68
2021/07/01 07:29:36;;;;;;;10.38;2.80;;;;;;;;;;5134232;27;20027;-68
2021/07/01 07:32:04;;;;;;;5.78;2.10;;;;;;;;;;5134279;27;20416;-69
2021/07/01 07:34:31;;;;;;;3.58;1.77;;;;;;;;;;5134146;27;20028;-65
2021/07/01 07:36:57;;;;;;;5.30;2.53;;;;;;;;;;5134024;27;20188;-68
2021/07/01 07:39:25;;;;;;;5.68;1.92;;;;;;;;;;5133777;27;20441;-65
2021/07/01 07:41:51;;;;;;;33.42;2.92;;;;;;;;;;5134124;27;20027;-70
2021/07/01 07:44:18;;;;;;;5.25;2.42;;;;;;;;;;5115622;27;20019;-68
2021/07/01 07:46:44;;;;;;;12.85;6.40;;;;;;;;;;5134137;27;20114;-69
2021/07/01 07:49:11;;;;;;;4.20;2.58;;;;;;;;;;5133981;27;20165;-69
2021/07/01 07:51:39;;;;;;;14.15;2.60;;;;;;;;;;5134018;28;20019;-68
2021/07/01 07:54:07;;;;;;;7.45;1.98;;;;;;;;;;5115418;28;20423;-67
2021/07/01 07:56:37;;;;;;;3.15;1.65;;;;;;;;;;5115517;28;20076;-66
2021/07/01 07:59:07;;;;;;;5.28;2.08;;;;;;;;;;5133598;28;20238;-68
2021/07/01 08:01:36;;;;;;;10.25;2.72;;;;;;;;;;5133895;28;20042;-68
2021/07/01 08:04:06;;;;;;;4.50;1.67;;;;;;;;;;5133941;28;20028;-69
2021/07/01 08:06:33;;;;;;;12.73;2.35;;;;;;;;;;5115485;28;20026;-66
2021/07/01 08:09:01;;;;;;;3.22;1.70;;;;;;;;;;5133449;28;20379;-67
2021/07/01 08:11:27;;;;;;;5.85;1.92;;;;;;;;;;5133827;28;20118;-67
2021/07/01 08:13:56;;;;;;;8.68;2.25;;;;;;;;;;5115269;28;20024;-69
2021/07/01 08:16:25;;;;;;;4.65;1.92;;;;;;;;;;5133608;28;20036;-68
2021/07/01 08:18:51;;;;;;;5.18;1.77;;;;;;;;;;5133686;28;20027;-69
2021/07/01 08:21:18;;;;;;;6.50;1.73;;;;;;;;;;5133704;28;20027;-68
2021/07/01 08:23:44;;;;;;;3.17;1.20;;;;;;;;;;5115244;28;20027;-66
2021/07/01 08:26:13;;;;;;;5.80;1.55;;;;;;;;;;5115260;28;20114;-65
2021/07/01 08:28:39;;;;;;;2.30;1.20;;;;;;;;;;5133705;28;20024;-69
2021/07/01 08:31:14;;;;;;;4.95;1.40;;;;;;;;;;5133605;28;20023;-69
2021/07/01 08:33:41;;;;;;;2.40;1.42;;;;;;;;;;5133612;28;20026;-66
2021/07/01 08:36:15;;;;;;;2.88;1.27;;;;;;;;;;5132497;28;20053;-68
2021/07/01 08:38:42;;;;;;;5.57;1.48;;;;;;;;;;5135907;27;20062;-67
2021/07/01 08:41:13;;;;;;;1.98;1.25;;;;;;;;;;5119146;27;20072;-69
2021/07/01 08:43:39;;;;;;;;;;;;;;;;;;5137967;27;20046;-69
2021/07/01 08:46:14;;;;;;;3.35;1.20;;;;;;;;;;5118991;27;19911;-66
2021/07/01 08:48:49;;;;;;;8.05;1.52;;;;;;;;;;5137355;27;20087;-69
2021/07/01 08:51:16;;;;;;;5.30;1.20;;;;;;;;;;5119179;27;20379;-68
2021/07/01 08:53:51;;;;;;;2.05;1.10;;;;;;;;;;5137238;27;20027;-66
2021/07/01 08:56:18;;;;;;;11.85;1.67;;;;;;;;;;5118721;27;20056;-65
2021/07/01 08:58:47;;;;;;;2.33;1.20;;;;;;;;;;5118501;27;20027;-66
2021/07/01 09:01:14;;;;;;;1.40;1.10;;;;;;;;;;5137046;27;20085;-67
2021/07/01 09:03:43;;;;;;;1.95;1.23;;;;;;;;;;5137366;27;20023;-68
2021/07/01 09:06:13;;;;;;;2.72;1.27;;;;;;;;;;5137320;27;20016;-65
2021/07/01 09:08:41;;;;;;;4.15;1.15;;;;;;;;;;5118513;27;20066;-67
2021/07/01 09:11:11;;;;;;;1.20;0.93;;;;;;;;;;5118469;27;20023;-66
2021/07/01 09:13:38;;;;;;;4.30;1.00;;;;;;;;;;5136919;27;20019;-67
2021/07/01 09:16:05;;;;;;;2.28;1.20;;;;;;;;;;5136897;27;20023;-66
2021/07/01 09:18:33;;;;;;;4.03;0.77;;;;;;;;;;5136684;27;20034;-65
2021/07/01 09:21:00;;;;;;;1.85;1.15;;;;;;;;;;5118309;27;20023;-69
2021/07/01 09:23:29;;;;;;;3.63;1.08;;;;;;;;;;5136638;27;20438;-66
2021/07/01 09:25:57;;;;;;;2.65;1.38;;;;;;;;;;5136659;27;20432;-71
2021/07/01 09:28:23;;;;;;;4.50;1.00;;;;;;;;;;5136761;27;20654;-65
2021/07/01 09:30:49;;;;;;;4.35;0.93;;;;;;;;;;5136582;27;20113;-66
2021/07/01 09:33:16;;;;;;;5.57;0.98;;;;;;;;;;5136546;27;20027;-67
2021/07/01 09:35:44;;;;;;;4.38;0.88;;;;;;;;;;5136244;27;20392;-67
2021/07/01 09:38:11;;;;;;;3.60;1.00;;;;;;;;;;5136571;27;20023;-65
2021/07/01 09:40:38;;;;;;;4.43;1.25;;;;;;;;;;5136357;27;20029;-65
2021/07/01 09:43:05;;;;;;;4.45;1.25;;;;;;;;;;5136386;27;20080;-65
2021/07/01 09:45:32;;;;;;;11.45;1.10;;;;;;;;;;5136923;27;20107;-67
2021/07/01 09:48:19;;;;;;;3.83;1.38;;;;;;;;;;5136311;27;20103;-66
2021/07/01 09:50:49;;;;;;;5.47;1.23;;;;;;;;;;5115582;27;20030;-65
2021/07/01 09:53:41;;;;;;;6.75;1.52;;;;;;;;;;5116280;27;20023;-69
2021/07/01 09:56:13;;;;;;;4.30;1.13;;;;;;;;;;5112885;27;20517;-69
2021/07/01 09:58:47;;;;;;;5.88;1.40;;;;;;;;;;5134548;27;20367;-67
2021/07/01 10:01:24;;;;;;;1.48;1.10;;;;;;;;;;5117478;27;20068;-68
2021/07/01 10:03:57;;;;;;;5.20;0.95;;;;;;;;;;5135633;27;20026;-68
2021/07/01 10:06:24;;;;;;;2.42;0.88;;;;;;;;;;5135465;27;20031;-67
2021/07/01 10:08:51;;;;;;;7.82;1.08;;;;;;;;;;5135194;27;20027;-69
2021/07/01 10:11:37;;;;;;;4.82;0.95;;;;;;;;;;5135447;27;20034;-68
2021/07/01 10:14:05;;;;;;;3.45;0.90;;;;;;;;;;5135705;27;20057;-68
2021/07/01 10:16:33;;;;;;;4.97;0.93;;;;;;;;;;5135706;27;20030;-69
2021/07/01 10:19:01;;;;;;;2.35;1.10;;;;;;;;;;5135495;27;20072;-68
2021/07/01 10:21:29;;;;;;;3.60;0.80;;;;;;;;;;5135577;27;20027;-67
2021/07/01 10:24:07;;;;;;;2.05;1.15;;;;;;;;;;5135517;27;20020;-67
2021/07/01 10:26:45;;;;;;;1.88;1.02;;;;;;;;;;5135767;27;20050;-66
2021/07/01 10:29:11;;;;;;;2.55;0.80;;;;;;;;;;5135540;27;20037;-66
2021/07/01 10:31:48;;;;;;;2.33;0.98;;;;;;;;;;5135421;27;20027;-67
2021/07/01 10:34:15;;;;;;;3.17;1.10;;;;;;;;;;5116934;27;20459;-67
2021/07/01 10:36:41;;;;;;;5.03;1.33;;;;;;;;;;5134545;27;20039;-67
2021/07/01 10:39:07;;;;;;;5.28;2.00;;;;;;;;;;5135331;27;20023;-66
2021/07/01 10:41:37;;;;;;;3.13;1.70;;;;;;;;;;5135554;27;20031;-67
2021/07/01 10:44:04;;;;;;;4.40;1.40;;;;;;;;;;5136336;27;20027;-65
2021/07/01 10:46:39;;;;;;;2.00;1.20;;;;;;;;;;5135229;27;20123;-67
2021/07/01 10:49:05;;;;;;;7.38;1.50;;;;;;;;;;5135972;27;20467;-65
2021/07/01 10:51:32;;;;;;;1.92;0.93;;;;;;;;;;5116664;27;20439;-66
2021/07/01 10:54:16;;;;;;;3.33;0.93;;;;;;;;;;5135302;27;20023;-66
2021/07/01 10:56:46;;;;;;;6.93;1.05;;;;;;;;;;5116285;27;20029;-65
2021/07/01 10:59:13;;;;;;;1.10;0.65;;;;;;;;;;5134811;27;20047;-67
2021/07/01 11:01:45;;;;;;;1.40;0.63;;;;;;;;;;5134702;27;20023;-67
2021/07/01 11:04:21;;;;;;;3.08;0.85;;;;;;;;;;5134977;27;20019;-68
2021/07/01 11:07:00;;;;;;;7.65;1.17;;;;;;;;;;5134499;27;20023;-66
2021/07/01 11:09:41;;;;;;;4.90;0.70;;;;;;;;;;5134404;27;20546;-65
2021/07/01 11:12:08;;;;;;;1.10;0.82;;;;;;;;;;5134983;27;20083;-66
2021/07/01 11:14:41;;;;;;;3.17;0.93;;;;;;;;;;5134220;27;20029;-68
2021/07/01 11:17:08;;;;;;;2.75;1.00;;;;;;;;;;5134466;27;20019;-69
2021/07/01 11:19:42;;;;;;;1.25;0.75;;;;;;;;;;5134318;27;20019;-68
2021/07/01 11:22:09;;;;;;;5.38;0.90;;;;;;;;;;5134441;27;20023;-69
2021/07/01 11:24:39;;;;;;;1.27;0.70;;;;;;;;;;5115857;27;20019;-66
2021/07/01 11:27:05;;;;;;;1.48;0.80;;;;;;;;;;5134400;27;20016;-67
2021/07/01 11:29:42;;;;;;;4.40;1.50;;;;;;;;;;5115864;27;20027;-68
2021/07/01 11:32:17;;;;;;;2.08;0.70;;;;;;;;;;5134446;27;20084;-66
2021/07/01 11:34:46;;;;;;;2.28;0.77;;;;;;;;;;5134314;27;20106;-69
2021/07/01 11:37:13;;;;;;;2.83;0.75;;;;;;;;;;5134045;27;20147;-68
2021/07/01 11:39:39;;;;;;;5.60;1.00;;;;;;;;;;5134316;27;20050;-68
2021/07/01 11:42:07;;;;;;;1.55;0.75;;;;;;;;;;5134046;27;20051;-68
2021/07/01 11:44:34;;;;;;;5.07;0.80;;;;;;;;;;5115608;27;20066;-67
2021/07/01 11:47:01;;;;;;;1.98;0.60;;;;;;;;;;5133708;27;20047;-68
2021/07/01 11:49:32;;;;;;;0.70;0.70;;;;;;;;;;5115682;27;20042;-67
2021/07/01 11:51:59;;;;;;;2.13;1.00;;;;;;;;;;5134005;28;20069;-69
2021/07/01 11:54:26;;;;;;;8.25;0.80;;;;;;;;;;5115166;28;20559;-67
2021/07/01 11:56:58;;;;;;;1.05;0.60;;;;;;;;;;5133897;28;20023;-68
2021/07/01 11:59:34;;;;;;;1.80;0.65;;;;;;;;;;5134163;28;20073;-69
2021/07/01 12:02:01;;;;;;;5.00;1.25;;;;;;;;;;5134027;28;20103;-67
2021/07/01 12:04:32;;;;;;;1.90;0.75;;;;;;;;;;5133822;28;20019;-68
2021/07/01 12:06:59;;;;;;;1.95;0.80;;;;;;;;;;5133746;28;20102;-67
2021/07/01 12:09:27;;;;;;;3.03;1.17;;;;;;;;;;5134031;28;20023;-68
2021/07/01 12:12:06;;;;;;;6.38;0.95;;;;;;;;;;5115247;27;20238;-66
2021/07/01 12:14:33;;;;;;;1.85;0.68;;;;;;;;;;5119422;27;20087;-67
2021/07/01 12:16:59;;;;;;;1.67;0.80;;;;;;;;;;5137326;27;20027;-69
2021/07/01 12:19:44;;;;;;;0.95;0.60;;;;;;;;;;5136460;27;20027;-67
2021/07/01 12:22:10;;;;;;;0.60;0.60;;;;;;;;;;5137830;27;20055;-69
2021/07/01 12:24:36;;;;;;;3.15;0.82;;;;;;;;;;5137896;27;20026;-68
2021/07/01 12:27:03;;;;;;;1.90;0.60;;;;;;;;;;5137818;27;20104;-67
2021/07/01 12:29:46;;;;;;;5.80;0.85;;;;;;;;;;5137754;27;20034;-68
2021/07/01 12:32:28;;;;;;;8.65;0.90;;;;;;;;;;5137970;27;20019;-69
2021/07/01 12:34:55;;;;;;;0.88;0.70;;;;;;;;;;5137610;27;20056;-68
2021/07/01 12:37:21;;;;;;;0.85;0.52;;;;;;;;;;5118878;27;20051;-68
2021/07/01 12:39:48;;;;;;;1.85;0.52;;;;;;;;;;5119090;27;20162;-68
2021/07/01 12:42:15;;;;;;;1.55;1.10;;;;;;;;;;5137479;27;20019;-68
2021/07/01 12:44:43;;;;;;;4.10;0.80;;;;;;;;;;5118895;27;20043;-67
2021/07/01 12:47:16;;;;;;;4.18;0.70;;;;;;;;;;5137411;27;20019;-70
2021/07/01 12:49:42;;;;;;;0.50;0.50;;;;;;;;;;5118968;27;20110;-70
2021/07/01 12:52:42;;;;;;;0.88;0.82;;;;;;;;;;5137307;27;20011;-66
2021/07/01 12:55:17;;;;;;;3.03;1.00;;;;;;;;;;5136740;27;20011;-67
2021/07/01 12:57:44;;;;;;;1.27;0.60;;;;;;;;;;5137255;27;20027;-69
2021/07/01 13:00:10;;;;;;;2.50;0.68;;;;;;;;;;5137074;27;20046;-69
2021/07/01 13:02:37;;;;;;;4.05;0.70;;;;;;;;;;5117148;27;20055;-67
2021/07/01 13:05:05;;;;;;;2.72;0.60;;;;;;;;;;5135809;27;20026;-69
2021/07/01 13:07:34;;;;;;;10.25;0.85;;;;;;;;;;5118599;27;20467;-67
2021/07/01 13:10:07;;;;;;;1.05;0.98;;;;;;;;;;5118479;27;20042;-67
2021/07/01 13:12:36;;;;;;;3.35;0.63;;;;;;;;;;5137156;27;20483;-68
2021/07/01 13:15:07;;;;;;;6.23;0.80;;;;;;;;;;5135734;27;20031;-67
2021/07/01 13:17:34;;;;;;;2.17;0.80;;;;;;;;;;5136954;27;20038;-69
2021/07/01 13:20:01;;;;;;;9.43;0.82;;;;;;;;;;5118379;27;20062;-69
2021/07/01 13:22:30;;;;;;;2.70;0.80;;;;;;;;;;5136815;27;20019;-69
2021/07/01 13:25:07;;;;;;;1.27;0.60;;;45.10;40.50;;;;;;5117054;27;20114;-69
2021/07/01 13:27:41;;;;;;;1.45;0.80;;;44.10;39.30;;;;;;5118396;27;20061;-66
2021/07/01 13:30:11;;;;;;;2.28;0.60;;;44.40;39.30;;;;;;5117548;27;20087;-68
2021/07/01 13:32:38;;;;;;;3.25;0.80;;;44.90;39.30;;;;;;5136779;27;20027;-67
2021/07/01 13:35:06;;;;;;;1.85;0.70;;;44.90;38.60;;;;;;5118093;27;20034;-68
2021/07/01 13:37:34;;;;;;;2.72;0.77;;;45.10;38.80;;;;;;5136828;27;20055;-68
2021/07/01 13:40:20;;;;;;;1.65;0.73;;;45.60;39.30;;;;;;5137045;27;20038;-68
2021/07/01 13:42:47;;;;;;;2.17;0.70;;;;;;;;;;5136903;27;20038;-67
2021/07/01 13:45:16;;;;;;;5.38;0.73;;;46.20;37.80;;;;;;5136771;27;20030;-68
2021/07/01 13:47:48;;;;;;;1.95;1.15;;;46.60;38.00;;;;;;5136715;27;20027;-68
2021/07/01 13:50:26;;;;;;;5.47;0.80;;;46.50;38.30;;;;;;5136272;27;20027;-69
2021/07/01 13:52:53;;;;;;;14.60;1.48;;;46.90;37.80;;;;;;5136268;27;20100;-68
2021/07/01 13:55:22;;;;;;;1.90;0.70;;;46.90;38.50;;;;;;5136177;27;20023;-71
2021/07/01 13:57:48;;;;;;;4.35;0.80;;;47.00;37.70;;;;;;5136039;27;20019;-71
2021/07/01 14:00:20;;;;;;;3.90;0.93;;;47.30;37.70;;;;;;5136109;27;20096;-68
2021/07/01 14:02:46;;;;;;;5.72;0.90;;;47.70;37.10;;;;;;5136005;27;20463;-71
2021/07/01 14:05:27;;;;;;;6.22;0.65;;;47.20;37.20;;;;;;5117319;27;20090;-70
2021/07/01 14:07:53;;;;;;;4.20;0.68;;;47.20;37.30;;;;;;5117434;27;20539;-71
2021/07/01 14:10:19;;;;;;;2.13;0.88;;;45.80;36.70;;;;;;5135917;27;20031;-69
2021/07/01 14:12:45;;;;;;;2.13;0.90;;;46.30;36.50;;;;;;5135825;27;20023;-71
2021/07/01 14:15:13;;;;;;;1.17;0.73;;;46.80;37.00;;;;;;5135816;27;20030;-70
2021/07/01 14:17:40;;;;;;;1.88;0.80;;;45.70;36.30;;;;;;5135802;27;20027;-69
2021/07/01 14:20:07;;;;;;;4.22;0.90;;;46.50;37.30;;;;;;5134818;27;20035;-73
2021/07/01 14:22:38;;;;;;;1.30;0.82;;;47.30;37.00;;;;;;5135311;27;20423;-71
2021/07/01 14:25:21;;;;;;;1.40;0.60;;;;;;;;;;5135572;27;20028;-68
2021/07/01 14:27:48;;;;;;;2.63;1.10;;;;;;;;;;5135545;27;20408;-70
2021/07/01 14:30:40;;;;;;;2.13;0.90;;;47.00;80.90;;;;;;5135519;27;20027;-71
2021/07/01 14:33:39;;;;;;;2.10;0.80;;;48.10;37.10;;;;;;5135475;27;20035;-70
2021/07/01 14:36:13;;;;;;;3.55;0.77;;;48.20;37.40;;;;;;5133881;27;20460;-68
2021/07/01 14:38:41;;;;;;;0.75;0.73;;;;;;;;;;5135292;27;20075;-68
2021/07/01 14:41:10;;;;;;;3.42;1.05;;;46.00;36.10;;;;;;5135268;27;20443;-70